sensor_id;sensor_type;location;lat;lon;timestamp;noise_LAeq;noise_LA_min;noise_LA_max;noise_LA01;noise_LA95
66450;Laerm;56829;52.274;4.770;2023-04-03T00:00:10;35.41;33.48;39.12;;
66450;Laerm;56829;52.274;4.770;2023-04-03T00:00:20;36.13;33.51;39.42;;
66450;Laerm;56829;52.274;4.770;2023-04-03T00:00:30;35.61;33.54;37.82;;
66450;Laerm;56829;52.274;4.770;2023-04-03T00:00:41;36.07;34.16;39.09;;
66450;Laerm;56829;52.274;4.770;2023-04-03T00:00:52;36.33;34.45;39.18;;
66450;Laerm;56829;52.274;4.770;2023-04-03T00:01:02;36.43;33.95;39.93;;
66450;Laerm;56829;52.274;4.770;2023-04-03T00:01:12;36.56;34.68;40.25;;
66450;Laerm;56829;52.274;4.770;2023-04-03T00:01:23;35.30;33.32;37.53;;
66450;Laerm;56829;52.274;4.770;2023-04-03T00:01:34;35.03;33.41;36.85;;
66450;Laerm;56829;52.274;4.770;2023-04-03T00:01:45;35.03;33.27;36.81;;
66450;Laerm;56829;52.274;4.770;2023-04-03T00:01:58;35.84;33.63;38.62;;
66450;Laerm;56829;52.274;4.770;2023-04-03T00:02:08;35.92;33.21;40.40;;
66450;Laerm;56829;52.274;4.770;2023-04-03T00:02:19;37.30;35.36;40.28;;
66450;Laerm;56829;52.274;4.770;2023-04-03T00:02:29;37.78;35.55;42.35;;
66450;Laerm;56829;52.274;4.770;2023-04-03T00:02:39;37.60;35.17;39.85;;
66450;Laerm;56829;52.274;4.770;2023-04-03T00:02:50;38.26;34.51;42.24;;
66450;Laerm;56829;52.274;4.770;2023-04-03T00:03:00;41.78;36.67;47.58;;
66450;Laerm;56829;52.274;4.770;2023-04-03T00:03:11;52.65;40.36;62.82;;
66450;Laerm;56829;52.274;4.770;2023-04-03T00:03:21;45.76;36.24;54.59;;
66450;Laerm;56829;52.274;4.770;2023-04-03T00:03:31;35.93;33.41;38.02;;
66450;Laerm;56829;52.274;4.770;2023-04-03T00:03:41;36.19;33.30;40.43;;
66450;Laerm;56829;52.274;4.770;2023-04-03T00:03:51;35.88;33.38;38.66;;
66450;Laerm;56829;52.274;4.770;2023-04-03T00:04:04;36.01;33.96;41.77;;
66450;Laerm;56829;52.274;4.770;2023-04-03T00:04:14;51.50;35.64;64.08;;
66450;Laerm;56829;52.274;4.770;2023-04-03T00:04:24;51.17;38.68;66.28;;
66450;Laerm;56829;52.274;4.770;2023-04-03T00:04:34;39.27;35.30;48.09;;
66450;Laerm;56829;52.274;4.770;2023-04-03T00:04:45;36.02;33.70;44.07;;
66450;Laerm;56829;52.274;4.770;2023-04-03T00:04:56;35.12;33.65;37.00;;
66450;Laerm;56829;52.274;4.770;2023-04-03T00:05:06;34.86;32.48;39.41;;
66450;Laerm;56829;52.274;4.770;2023-04-03T00:05:17;35.32;33.41;38.67;;
66450;Laerm;56829;52.274;4.770;2023-04-03T00:05:27;37.03;33.65;43.04;;
66450;Laerm;56829;52.274;4.770;2023-04-03T00:05:37;35.92;32.56;42.37;;
66450;Laerm;56829;52.274;4.770;2023-04-03T00:05:48;35.88;32.96;42.58;;
66450;Laerm;56829;52.274;4.770;2023-04-03T00:05:58;34.75;33.22;40.59;;
66450;Laerm;56829;52.274;4.770;2023-04-03T00:06:08;35.21;32.94;37.97;;
66450;Laerm;56829;52.274;4.770;2023-04-03T00:06:20;35.24;33.57;38.75;;
66450;Laerm;56829;52.274;4.770;2023-04-03T00:06:31;35.28;33.51;42.89;;
66450;Laerm;56829;52.274;4.770;2023-04-03T00:06:41;35.03;33.31;36.49;;
66450;Laerm;56829;52.274;4.770;2023-04-03T00:06:51;35.98;34.04;37.53;;
66450;Laerm;56829;52.274;4.770;2023-04-03T00:07:02;36.00;34.03;38.26;;
66450;Laerm;56829;52.274;4.770;2023-04-03T00:07:12;35.47;33.78;37.22;;
66450;Laerm;56829;52.274;4.770;2023-04-03T00:07:27;36.24;33.86;39.08;;
66450;Laerm;56829;52.274;4.770;2023-04-03T00:07:38;37.49;34.75;43.09;;
66450;Laerm;56829;52.274;4.770;2023-04-03T00:07:48;53.27;35.92;64.60;;
66450;Laerm;56829;52.274;4.770;2023-04-03T00:07:59;55.03;42.51;67.08;;
66450;Laerm;56829;52.274;4.770;2023-04-03T00:08:11;41.74;35.03;52.33;;
66450;Laerm;56829;52.274;4.770;2023-04-03T00:08:22;37.87;35.09;40.95;;
66450;Laerm;56829;52.274;4.770;2023-04-03T00:08:32;52.00;37.58;60.96;;
66450;Laerm;56829;52.274;4.770;2023-04-03T00:08:42;45.48;39.92;52.15;;
66450;Laerm;56829;52.274;4.770;2023-04-03T00:08:53;39.46;36.61;42.74;;
66450;Laerm;56829;52.274;4.770;2023-04-03T00:09:04;36.46;34.23;39.14;;
66450;Laerm;56829;52.274;4.770;2023-04-03T00:09:14;36.32;34.34;39.41;;
66450;Laerm;56829;52.274;4.770;2023-04-03T00:09:24;37.09;34.75;41.95;;
66450;Laerm;56829;52.274;4.770;2023-04-03T00:09:35;36.72;34.66;39.85;;
66450;Laerm;56829;52.274;4.770;2023-04-03T00:09:51;36.55;34.20;41.88;;
66450;Laerm;56829;52.274;4.770;2023-04-03T00:10:01;37.21;35.06;40.37;;
66450;Laerm;56829;52.274;4.770;2023-04-03T00:10:11;36.82;34.73;38.86;;
66450;Laerm;56829;52.274;4.770;2023-04-03T00:10:22;37.09;34.69;39.59;;
66450;Laerm;56829;52.274;4.770;2023-04-03T00:10:32;36.54;35.09;38.35;;
66450;Laerm;56829;52.274;4.770;2023-04-03T00:10:42;35.90;34.28;38.33;;
66450;Laerm;56829;52.274;4.770;2023-04-03T00:10:52;35.42;33.38;37.69;;
66450;Laerm;56829;52.274;4.770;2023-04-03T00:11:03;36.51;33.82;40.62;;
66450;Laerm;56829;52.274;4.770;2023-04-03T00:11:13;37.82;34.75;42.11;;
66450;Laerm;56829;52.274;4.770;2023-04-03T00:11:25;37.04;34.21;40.03;;
66450;Laerm;56829;52.274;4.770;2023-04-03T00:11:36;37.45;35.43;39.45;;
66450;Laerm;56829;52.274;4.770;2023-04-03T00:11:47;36.34;34.24;40.54;;
66450;Laerm;56829;52.274;4.770;2023-04-03T00:11:58;45.76;35.26;52.55;;
66450;Laerm;56829;52.274;4.770;2023-04-03T00:12:08;50.43;40.26;60.18;;
66450;Laerm;56829;52.274;4.770;2023-04-03T00:12:19;41.64;37.22;46.45;;
66450;Laerm;56829;52.274;4.770;2023-04-03T00:12:29;53.95;40.79;65.26;;
66450;Laerm;56829;52.274;4.770;2023-04-03T00:12:40;53.44;37.39;64.87;;
66450;Laerm;56829;52.274;4.770;2023-04-03T00:12:50;36.76;33.78;39.55;;
66450;Laerm;56829;52.274;4.770;2023-04-03T00:13:00;35.42;33.41;38.47;;
66450;Laerm;56829;52.274;4.770;2023-04-03T00:13:10;35.70;34.11;37.56;;
66450;Laerm;56829;52.274;4.770;2023-04-03T00:13:20;35.53;33.89;37.34;;
66450;Laerm;56829;52.274;4.770;2023-04-03T00:13:31;35.62;34.11;37.21;;
66450;Laerm;56829;52.274;4.770;2023-04-03T00:13:44;35.76;33.39;37.54;;
66450;Laerm;56829;52.274;4.770;2023-04-03T00:13:54;36.02;33.96;45.05;;
66450;Laerm;56829;52.274;4.770;2023-04-03T00:14:05;36.38;33.88;39.87;;
66450;Laerm;56829;52.274;4.770;2023-04-03T00:14:15;37.87;34.95;47.06;;
66450;Laerm;56829;52.274;4.770;2023-04-03T00:14:25;36.85;34.31;39.29;;
66450;Laerm;56829;52.274;4.770;2023-04-03T00:14:36;36.53;34.61;37.97;;
66450;Laerm;56829;52.274;4.770;2023-04-03T00:14:46;36.49;34.40;38.51;;
66450;Laerm;56829;52.274;4.770;2023-04-03T00:14:56;36.74;34.30;38.98;;
66450;Laerm;56829;52.274;4.770;2023-04-03T00:15:06;36.54;34.57;38.88;;
66450;Laerm;56829;52.274;4.770;2023-04-03T00:15:16;37.23;35.15;39.29;;
66450;Laerm;56829;52.274;4.770;2023-04-03T00:15:27;37.48;35.01;42.00;;
66450;Laerm;56829;52.274;4.770;2023-04-03T00:15:37;37.52;34.93;39.92;;
66450;Laerm;56829;52.274;4.770;2023-04-03T00:15:47;37.84;34.94;41.32;;
66450;Laerm;56829;52.274;4.770;2023-04-03T00:15:58;36.98;33.92;39.78;;
66450;Laerm;56829;52.274;4.770;2023-04-03T00:16:08;36.96;34.09;39.98;;
66450;Laerm;56829;52.274;4.770;2023-04-03T00:16:19;36.86;34.71;39.52;;
66450;Laerm;56829;52.274;4.770;2023-04-03T00:16:29;37.74;35.72;41.42;;
66450;Laerm;56829;52.274;4.770;2023-04-03T00:16:39;36.68;34.38;39.47;;
66450;Laerm;56829;52.274;4.770;2023-04-03T00:16:49;37.74;35.20;40.38;;
66450;Laerm;56829;52.274;4.770;2023-04-03T00:17:00;37.82;35.74;40.97;;
66450;Laerm;56829;52.274;4.770;2023-04-03T00:17:10;37.67;34.41;40.61;;
66450;Laerm;56829;52.274;4.770;2023-04-03T00:17:20;37.04;34.44;39.27;;
66450;Laerm;56829;52.274;4.770;2023-04-03T00:17:30;36.78;33.98;40.17;;
66450;Laerm;56829;52.274;4.770;2023-04-03T00:17:41;36.52;34.57;38.65;;
66450;Laerm;56829;52.274;4.770;2023-04-03T00:17:51;36.06;34.28;40.56;;
66450;Laerm;56829;52.274;4.770;2023-04-03T00:18:02;35.56;32.99;38.25;;
66450;Laerm;56829;52.274;4.770;2023-04-03T00:18:12;35.95;33.88;37.79;;
66450;Laerm;56829;52.274;4.770;2023-04-03T00:18:22;35.76;33.39;37.68;;
66450;Laerm;56829;52.274;4.770;2023-04-03T00:18:32;35.22;32.82;36.94;;
66450;Laerm;56829;52.274;4.770;2023-04-03T00:18:43;34.89;33.39;36.90;;
66450;Laerm;56829;52.274;4.770;2023-04-03T00:18:53;35.42;33.75;37.11;;
66450;Laerm;56829;52.274;4.770;2023-04-03T00:19:04;35.13;33.07;37.28;;
66450;Laerm;56829;52.274;4.770;2023-04-03T00:19:15;34.99;33.29;36.89;;
66450;Laerm;56829;52.274;4.770;2023-04-03T00:19:25;35.24;33.36;37.52;;
66450;Laerm;56829;52.274;4.770;2023-04-03T00:19:37;34.87;32.47;36.71;;
66450;Laerm;56829;52.274;4.770;2023-04-03T00:19:47;35.09;33.33;36.89;;
66450;Laerm;56829;52.274;4.770;2023-04-03T00:19:57;34.85;33.11;36.80;;
66450;Laerm;56829;52.274;4.770;2023-04-03T00:20:08;35.99;33.34;47.50;;
66450;Laerm;56829;52.274;4.770;2023-04-03T00:20:19;35.94;34.40;40.40;;
66450;Laerm;56829;52.274;4.770;2023-04-03T00:20:29;35.45;33.42;38.40;;
66450;Laerm;56829;52.274;4.770;2023-04-03T00:20:39;35.74;33.37;38.73;;
66450;Laerm;56829;52.274;4.770;2023-04-03T00:20:50;36.13;34.02;38.33;;
66450;Laerm;56829;52.274;4.770;2023-04-03T00:21:00;37.27;34.65;41.09;;
66450;Laerm;56829;52.274;4.770;2023-04-03T00:21:12;36.77;33.84;39.56;;
66450;Laerm;56829;52.274;4.770;2023-04-03T00:21:22;35.67;33.97;37.29;;
66450;Laerm;56829;52.274;4.770;2023-04-03T00:21:34;35.84;33.81;38.82;;
66450;Laerm;56829;52.274;4.770;2023-04-03T00:21:44;36.22;33.47;39.99;;
66450;Laerm;56829;52.274;4.770;2023-04-03T00:21:55;35.57;33.23;38.47;;
66450;Laerm;56829;52.274;4.770;2023-04-03T00:22:05;35.27;32.36;37.98;;
66450;Laerm;56829;52.274;4.770;2023-04-03T00:22:15;36.01;33.68;39.57;;
66450;Laerm;56829;52.274;4.770;2023-04-03T00:22:25;35.65;33.31;39.16;;
66450;Laerm;56829;52.274;4.770;2023-04-03T00:22:38;35.83;33.64;37.58;;
66450;Laerm;56829;52.274;4.770;2023-04-03T00:22:48;35.89;33.61;40.74;;
66450;Laerm;56829;52.274;4.770;2023-04-03T00:22:59;37.05;34.25;42.43;;
66450;Laerm;56829;52.274;4.770;2023-04-03T00:23:10;34.70;32.36;37.18;;
66450;Laerm;56829;52.274;4.770;2023-04-03T00:23:20;35.18;32.73;38.63;;
66450;Laerm;56829;52.274;4.770;2023-04-03T00:23:33;36.53;34.17;41.85;;
66450;Laerm;56829;52.274;4.770;2023-04-03T00:23:44;36.04;33.92;41.88;;
66450;Laerm;56829;52.274;4.770;2023-04-03T00:23:54;35.41;33.77;37.80;;
66450;Laerm;56829;52.274;4.770;2023-04-03T00:24:06;35.13;32.58;37.77;;
66450;Laerm;56829;52.274;4.770;2023-04-03T00:24:16;35.18;33.30;38.00;;
66450;Laerm;56829;52.274;4.770;2023-04-03T00:24:27;34.83;32.75;36.97;;
66450;Laerm;56829;52.274;4.770;2023-04-03T00:24:38;35.39;33.25;37.56;;
66450;Laerm;56829;52.274;4.770;2023-04-03T00:24:48;36.25;34.29;39.40;;
66450;Laerm;56829;52.274;4.770;2023-04-03T00:24:58;35.21;32.77;37.87;;
66450;Laerm;56829;52.274;4.770;2023-04-03T00:25:08;34.48;32.78;36.27;;
66450;Laerm;56829;52.274;4.770;2023-04-03T00:25:19;34.79;32.60;36.95;;
66450;Laerm;56829;52.274;4.770;2023-04-03T00:25:29;35.17;33.31;37.63;;
66450;Laerm;56829;52.274;4.770;2023-04-03T00:25:39;34.63;32.84;36.44;;
66450;Laerm;56829;52.274;4.770;2023-04-03T00:25:50;35.63;33.45;37.51;;
66450;Laerm;56829;52.274;4.770;2023-04-03T00:26:00;35.98;34.34;39.16;;
66450;Laerm;56829;52.274;4.770;2023-04-03T00:26:11;36.22;34.56;37.45;;
66450;Laerm;56829;52.274;4.770;2023-04-03T00:26:21;36.45;34.49;38.62;;
66450;Laerm;56829;52.274;4.770;2023-04-03T00:26:32;36.44;33.87;37.98;;
66450;Laerm;56829;52.274;4.770;2023-04-03T00:26:42;35.78;33.21;38.57;;
66450;Laerm;56829;52.274;4.770;2023-04-03T00:26:52;35.94;33.22;42.04;;
66450;Laerm;56829;52.274;4.770;2023-04-03T00:27:02;36.06;34.06;39.24;;
66450;Laerm;56829;52.274;4.770;2023-04-03T00:27:17;36.16;33.93;38.53;;
66450;Laerm;56829;52.274;4.770;2023-04-03T00:27:27;36.38;33.80;39.33;;
66450;Laerm;56829;52.274;4.770;2023-04-03T00:27:38;35.84;33.49;38.53;;
66450;Laerm;56829;52.274;4.770;2023-04-03T00:27:49;35.97;33.71;38.29;;
66450;Laerm;56829;52.274;4.770;2023-04-03T00:27:59;36.11;34.22;38.53;;
66450;Laerm;56829;52.274;4.770;2023-04-03T00:28:09;35.57;33.56;38.52;;
66450;Laerm;56829;52.274;4.770;2023-04-03T00:28:19;35.98;34.19;38.29;;
66450;Laerm;56829;52.274;4.770;2023-04-03T00:28:30;35.60;33.64;38.80;;
66450;Laerm;56829;52.274;4.770;2023-04-03T00:28:40;35.84;33.15;39.00;;
66450;Laerm;56829;52.274;4.770;2023-04-03T00:28:50;36.06;33.29;40.89;;
66450;Laerm;56829;52.274;4.770;2023-04-03T00:29:00;35.09;33.29;37.03;;
66450;Laerm;56829;52.274;4.770;2023-04-03T00:29:11;34.85;32.84;37.88;;
66450;Laerm;56829;52.274;4.770;2023-04-03T00:29:21;35.08;32.76;38.15;;
66450;Laerm;56829;52.274;4.770;2023-04-03T00:29:31;37.18;34.25;41.44;;
66450;Laerm;56829;52.274;4.770;2023-04-03T00:29:43;36.49;33.82;39.27;;
66450;Laerm;56829;52.274;4.770;2023-04-03T00:29:53;35.32;33.45;37.68;;
66450;Laerm;56829;52.274;4.770;2023-04-03T00:30:03;35.07;33.47;37.99;;
66450;Laerm;56829;52.274;4.770;2023-04-03T00:30:14;36.30;34.21;38.87;;
66450;Laerm;56829;52.274;4.770;2023-04-03T00:30:25;36.05;33.97;45.83;;
66450;Laerm;56829;52.274;4.770;2023-04-03T00:30:36;35.53;33.73;38.14;;
66450;Laerm;56829;52.274;4.770;2023-04-03T00:30:48;37.43;34.88;41.29;;
66450;Laerm;56829;52.274;4.770;2023-04-03T00:30:58;37.73;35.57;40.54;;
66450;Laerm;56829;52.274;4.770;2023-04-03T00:31:08;38.24;36.55;42.26;;
66450;Laerm;56829;52.274;4.770;2023-04-03T00:31:18;37.45;35.15;39.96;;
66450;Laerm;56829;52.274;4.770;2023-04-03T00:31:29;36.71;34.67;39.54;;
66450;Laerm;56829;52.274;4.770;2023-04-03T00:31:39;37.45;35.52;40.52;;
66450;Laerm;56829;52.274;4.770;2023-04-03T00:31:49;40.31;35.88;48.47;;
66450;Laerm;56829;52.274;4.770;2023-04-03T00:32:00;38.26;35.67;40.32;;
66450;Laerm;56829;52.274;4.770;2023-04-03T00:32:10;37.12;35.22;39.16;;
66450;Laerm;56829;52.274;4.770;2023-04-03T00:32:20;36.89;34.78;41.85;;
66450;Laerm;56829;52.274;4.770;2023-04-03T00:32:30;36.93;34.55;40.11;;
66450;Laerm;56829;52.274;4.770;2023-04-03T00:32:41;37.90;35.82;39.91;;
66450;Laerm;56829;52.274;4.770;2023-04-03T00:32:52;38.49;35.44;41.07;;
66450;Laerm;56829;52.274;4.770;2023-04-03T00:33:02;38.60;35.25;41.21;;
66450;Laerm;56829;52.274;4.770;2023-04-03T00:33:12;35.68;33.88;37.05;;
66450;Laerm;56829;52.274;4.770;2023-04-03T00:33:23;37.01;34.75;41.53;;
66450;Laerm;56829;52.274;4.770;2023-04-03T00:33:34;37.87;35.50;41.40;;
66450;Laerm;56829;52.274;4.770;2023-04-03T00:33:44;37.34;35.42;40.72;;
66450;Laerm;56829;52.274;4.770;2023-04-03T00:33:55;37.57;35.55;40.01;;
66450;Laerm;56829;52.274;4.770;2023-04-03T00:34:05;36.10;34.45;37.75;;
66450;Laerm;56829;52.274;4.770;2023-04-03T00:34:15;36.28;34.63;38.85;;
66450;Laerm;56829;52.274;4.770;2023-04-03T00:34:25;36.77;34.38;39.40;;
66450;Laerm;56829;52.274;4.770;2023-04-03T00:34:36;38.31;35.48;41.59;;
66450;Laerm;56829;52.274;4.770;2023-04-03T00:34:46;36.01;34.02;37.92;;
66450;Laerm;56829;52.274;4.770;2023-04-03T00:34:56;35.71;33.75;37.21;;
66450;Laerm;56829;52.274;4.770;2023-04-03T00:35:06;36.31;34.14;38.11;;
66450;Laerm;56829;52.274;4.770;2023-04-03T00:35:17;35.60;33.43;37.66;;
66450;Laerm;56829;52.274;4.770;2023-04-03T00:35:27;35.16;33.25;37.21;;
66450;Laerm;56829;52.274;4.770;2023-04-03T00:35:39;35.35;33.80;37.48;;
66450;Laerm;56829;52.274;4.770;2023-04-03T00:35:58;36.21;33.68;40.13;;
66450;Laerm;56829;52.274;4.770;2023-04-03T00:36:09;37.35;34.34;45.35;;
66450;Laerm;56829;52.274;4.770;2023-04-03T00:36:20;36.15;33.90;38.13;;
66450;Laerm;56829;52.274;4.770;2023-04-03T00:36:31;37.18;34.11;41.64;;
66450;Laerm;56829;52.274;4.770;2023-04-03T00:36:41;36.47;34.37;38.79;;
66450;Laerm;56829;52.274;4.770;2023-04-03T00:36:54;36.40;34.07;40.03;;
66450;Laerm;56829;52.274;4.770;2023-04-03T00:37:06;36.63;34.70;38.85;;
66450;Laerm;56829;52.274;4.770;2023-04-03T00:37:16;37.37;35.35;39.91;;
66450;Laerm;56829;52.274;4.770;2023-04-03T00:37:26;38.50;36.12;40.81;;
66450;Laerm;56829;52.274;4.770;2023-04-03T00:37:37;43.94;37.45;50.51;;
66450;Laerm;56829;52.274;4.770;2023-04-03T00:37:50;46.86;40.40;51.79;;
66450;Laerm;56829;52.274;4.770;2023-04-03T00:38:00;52.31;41.81;61.49;;
66450;Laerm;56829;52.274;4.770;2023-04-03T00:38:11;53.75;43.67;61.67;;
66450;Laerm;56829;52.274;4.770;2023-04-03T00:38:21;51.72;42.81;60.08;;
66450;Laerm;56829;52.274;4.770;2023-04-03T00:38:31;42.10;38.10;45.92;;
66450;Laerm;56829;52.274;4.770;2023-04-03T00:38:42;44.78;36.42;57.86;;
66450;Laerm;56829;52.274;4.770;2023-04-03T00:38:56;38.66;35.39;43.67;;
66450;Laerm;56829;52.274;4.770;2023-04-03T00:39:06;38.18;35.43;48.17;;
66450;Laerm;56829;52.274;4.770;2023-04-03T00:39:16;38.94;37.29;41.88;;
66450;Laerm;56829;52.274;4.770;2023-04-03T00:39:26;37.52;34.73;39.83;;
66450;Laerm;56829;52.274;4.770;2023-04-03T00:39:37;36.31;33.74;38.55;;
66450;Laerm;56829;52.274;4.770;2023-04-03T00:39:49;36.99;34.66;44.66;;
66450;Laerm;56829;52.274;4.770;2023-04-03T00:39:59;37.65;35.33;40.59;;
66450;Laerm;56829;52.274;4.770;2023-04-03T00:40:10;37.87;35.74;40.14;;
66450;Laerm;56829;52.274;4.770;2023-04-03T00:40:23;37.08;34.39;39.04;;
66450;Laerm;56829;52.274;4.770;2023-04-03T00:40:37;45.35;36.50;52.86;;
66450;Laerm;56829;52.274;4.770;2023-04-03T00:40:48;41.47;35.80;48.78;;
66450;Laerm;56829;52.274;4.770;2023-04-03T00:41:02;38.87;36.24;42.21;;
66450;Laerm;56829;52.274;4.770;2023-04-03T00:41:12;37.63;33.79;40.90;;
66450;Laerm;56829;52.274;4.770;2023-04-03T00:41:22;36.33;32.77;39.13;;
66450;Laerm;56829;52.274;4.770;2023-04-03T00:41:32;37.05;34.71;40.01;;
66450;Laerm;56829;52.274;4.770;2023-04-03T00:41:44;38.75;35.38;41.96;;
66450;Laerm;56829;52.274;4.770;2023-04-03T00:41:55;37.54;34.68;41.11;;
66450;Laerm;56829;52.274;4.770;2023-04-03T00:42:06;36.85;34.84;39.33;;
66450;Laerm;56829;52.274;4.770;2023-04-03T00:42:16;37.46;35.01;40.10;;
66450;Laerm;56829;52.274;4.770;2023-04-03T00:42:27;37.91;35.40;39.94;;
66450;Laerm;56829;52.274;4.770;2023-04-03T00:42:37;38.27;35.02;41.45;;
66450;Laerm;56829;52.274;4.770;2023-04-03T00:42:48;38.52;35.90;42.24;;
66450;Laerm;56829;52.274;4.770;2023-04-03T00:43:00;37.89;35.35;42.79;;
66450;Laerm;56829;52.274;4.770;2023-04-03T00:43:18;37.34;34.17;40.87;;
66450;Laerm;56829;52.274;4.770;2023-04-03T00:43:29;36.67;33.63;41.68;;
66450;Laerm;56829;52.274;4.770;2023-04-03T00:43:39;36.77;33.95;39.17;;
66450;Laerm;56829;52.274;4.770;2023-04-03T00:43:52;36.11;33.78;37.89;;
66450;Laerm;56829;52.274;4.770;2023-04-03T00:45:25;36.05;34.32;38.78;;
66450;Laerm;56829;52.274;4.770;2023-04-03T00:45:38;37.65;34.25;46.92;;
66450;Laerm;56829;52.274;4.770;2023-04-03T00:45:50;35.90;34.27;38.06;;
66450;Laerm;56829;52.274;4.770;2023-04-03T00:46:01;35.83;33.79;37.87;;
66450;Laerm;56829;52.274;4.770;2023-04-03T00:46:13;36.02;33.93;39.18;;
66450;Laerm;56829;52.274;4.770;2023-04-03T00:46:23;35.54;33.50;37.19;;
66450;Laerm;56829;52.274;4.770;2023-04-03T00:46:33;36.67;34.33;39.57;;
66450;Laerm;56829;52.274;4.770;2023-04-03T00:46:44;36.37;34.41;38.34;;
66450;Laerm;56829;52.274;4.770;2023-04-03T00:46:54;38.14;34.44;48.23;;
66450;Laerm;56829;52.274;4.770;2023-04-03T00:47:05;36.46;33.91;40.71;;
66450;Laerm;56829;52.274;4.770;2023-04-03T00:47:16;38.07;35.45;45.90;;
66450;Laerm;56829;52.274;4.770;2023-04-03T00:47:27;38.27;34.65;47.00;;
66450;Laerm;56829;52.274;4.770;2023-04-03T00:47:39;36.16;34.06;38.23;;
66450;Laerm;56829;52.274;4.770;2023-04-03T00:47:50;36.14;33.89;37.69;;
66450;Laerm;56829;52.274;4.770;2023-04-03T00:48:02;35.95;33.86;37.75;;
66450;Laerm;56829;52.274;4.770;2023-04-03T00:48:17;35.36;33.45;39.35;;
66450;Laerm;56829;52.274;4.770;2023-04-03T00:48:45;35.47;33.72;38.11;;
66450;Laerm;56829;52.274;4.770;2023-04-03T00:48:56;36.21;33.52;39.73;;
66450;Laerm;56829;52.274;4.770;2023-04-03T00:49:07;35.78;33.95;38.08;;
66450;Laerm;56829;52.274;4.770;2023-04-03T00:49:17;35.56;33.86;37.30;;
66450;Laerm;56829;52.274;4.770;2023-04-03T00:49:27;35.91;34.05;37.52;;
66450;Laerm;56829;52.274;4.770;2023-04-03T00:49:38;53.74;35.80;69.05;;
66450;Laerm;56829;52.274;4.770;2023-04-03T00:49:48;44.53;35.19;58.93;;
66450;Laerm;56829;52.274;4.770;2023-04-03T00:49:59;35.67;33.84;37.39;;
66450;Laerm;56829;52.274;4.770;2023-04-03T00:50:10;34.89;33.14;36.88;;
66450;Laerm;56829;52.274;4.770;2023-04-03T00:50:20;35.00;33.23;36.77;;
66450;Laerm;56829;52.274;4.770;2023-04-03T00:50:40;35.29;32.69;38.20;;
66450;Laerm;56829;52.274;4.770;2023-04-03T00:50:51;35.20;33.56;40.17;;
66450;Laerm;56829;52.274;4.770;2023-04-03T00:51:02;36.70;33.39;47.36;;
66450;Laerm;56829;52.274;4.770;2023-04-03T00:51:14;35.48;32.72;40.79;;
66450;Laerm;56829;52.274;4.770;2023-04-03T00:51:26;35.43;33.34;39.75;;
66450;Laerm;56829;52.274;4.770;2023-04-03T00:51:36;35.22;33.54;41.79;;
66450;Laerm;56829;52.274;4.770;2023-04-03T00:51:46;35.57;33.36;38.76;;
66450;Laerm;56829;52.274;4.770;2023-04-03T00:51:57;34.97;32.65;38.23;;
66450;Laerm;56829;52.274;4.770;2023-04-03T00:52:13;36.09;34.19;38.43;;
66450;Laerm;56829;52.274;4.770;2023-04-03T00:52:27;35.43;32.80;37.71;;
66450;Laerm;56829;52.274;4.770;2023-04-03T00:52:38;34.73;32.88;36.43;;
66450;Laerm;56829;52.274;4.770;2023-04-03T00:52:54;34.85;32.99;36.87;;
66450;Laerm;56829;52.274;4.770;2023-04-03T00:53:06;35.21;32.74;37.04;;
66450;Laerm;56829;52.274;4.770;2023-04-03T00:53:20;35.79;33.24;38.66;;
66450;Laerm;56829;52.274;4.770;2023-04-03T00:53:33;36.22;34.02;38.08;;
66450;Laerm;56829;52.274;4.770;2023-04-03T00:53:47;38.02;33.37;47.59;;
66450;Laerm;56829;52.274;4.770;2023-04-03T00:53:59;36.35;33.22;46.43;;
66450;Laerm;56829;52.274;4.770;2023-04-03T00:54:11;38.90;34.64;49.70;;
66450;Laerm;56829;52.274;4.770;2023-04-03T00:54:24;35.18;32.73;38.99;;
66450;Laerm;56829;52.274;4.770;2023-04-03T00:54:35;34.85;33.23;36.71;;
66450;Laerm;56829;52.274;4.770;2023-04-03T00:54:52;34.28;32.66;36.02;;
66450;Laerm;56829;52.274;4.770;2023-04-03T00:55:05;36.23;33.35;40.16;;
66450;Laerm;56829;52.274;4.770;2023-04-03T00:55:16;36.89;34.85;40.68;;
66450;Laerm;56829;52.274;4.770;2023-04-03T00:55:26;36.20;34.09;40.17;;
66450;Laerm;56829;52.274;4.770;2023-04-03T00:55:37;34.66;32.84;36.19;;
66450;Laerm;56829;52.274;4.770;2023-04-03T00:55:48;34.58;33.03;37.46;;
66450;Laerm;56829;52.274;4.770;2023-04-03T00:55:59;35.82;33.37;40.95;;
66450;Laerm;56829;52.274;4.770;2023-04-03T00:56:12;35.33;32.97;38.25;;
66450;Laerm;56829;52.274;4.770;2023-04-03T00:56:25;34.49;32.55;36.99;;
66450;Laerm;56829;52.274;4.770;2023-04-03T00:56:36;34.09;32.45;35.78;;
66450;Laerm;56829;52.274;4.770;2023-04-03T00:56:46;34.77;32.91;37.46;;
66450;Laerm;56829;52.274;4.770;2023-04-03T00:56:58;35.46;33.24;39.12;;
66450;Laerm;56829;52.274;4.770;2023-04-03T00:57:08;35.79;33.83;38.26;;
66450;Laerm;56829;52.274;4.770;2023-04-03T00:57:19;34.86;32.48;36.96;;
66450;Laerm;56829;52.274;4.770;2023-04-03T00:57:32;35.15;32.88;37.33;;
66450;Laerm;56829;52.274;4.770;2023-04-03T00:57:44;37.62;34.98;40.66;;
66450;Laerm;56829;52.274;4.770;2023-04-03T00:57:54;35.88;34.10;40.67;;
66450;Laerm;56829;52.274;4.770;2023-04-03T00:58:06;35.21;33.12;40.57;;
66450;Laerm;56829;52.274;4.770;2023-04-03T00:58:19;34.84;32.90;36.70;;
66450;Laerm;56829;52.274;4.770;2023-04-03T00:58:34;35.39;33.40;37.12;;
66450;Laerm;56829;52.274;4.770;2023-04-03T00:58:49;35.75;33.86;37.27;;
66450;Laerm;56829;52.274;4.770;2023-04-03T00:59:02;35.14;33.16;37.91;;
66450;Laerm;56829;52.274;4.770;2023-04-03T00:59:15;35.42;33.42;37.71;;
66450;Laerm;56829;52.274;4.770;2023-04-03T00:59:27;35.94;33.74;40.97;;
66450;Laerm;56829;52.274;4.770;2023-04-03T00:59:40;38.73;35.04;48.67;;
66450;Laerm;56829;52.274;4.770;2023-04-03T00:59:53;39.96;35.50;47.52;;
66450;Laerm;56829;52.274;4.770;2023-04-03T01:00:06;40.61;35.49;52.29;;
66450;Laerm;56829;52.274;4.770;2023-04-03T01:00:18;37.14;34.94;42.89;;
66450;Laerm;56829;52.274;4.770;2023-04-03T01:00:29;37.36;35.83;40.72;;
66450;Laerm;56829;52.274;4.770;2023-04-03T01:00:40;36.69;34.64;40.62;;
66450;Laerm;56829;52.274;4.770;2023-04-03T01:00:52;35.82;34.07;38.57;;
66450;Laerm;56829;52.274;4.770;2023-04-03T01:01:08;35.25;33.16;37.94;;
66450;Laerm;56829;52.274;4.770;2023-04-03T01:01:22;35.88;33.45;41.16;;
66450;Laerm;56829;52.274;4.770;2023-04-03T01:01:33;36.27;33.71;42.46;;
66450;Laerm;56829;52.274;4.770;2023-04-03T01:01:43;36.14;34.21;39.22;;
66450;Laerm;56829;52.274;4.770;2023-04-03T01:01:54;36.21;34.72;38.71;;
66450;Laerm;56829;52.274;4.770;2023-04-03T01:02:07;35.78;33.49;37.34;;
66450;Laerm;56829;52.274;4.770;2023-04-03T01:02:17;36.32;34.48;38.21;;
66450;Laerm;56829;52.274;4.770;2023-04-03T01:02:28;36.07;33.86;37.68;;
66450;Laerm;56829;52.274;4.770;2023-04-03T01:02:41;36.24;33.92;38.76;;
66450;Laerm;56829;52.274;4.770;2023-04-03T01:02:52;39.62;37.30;43.44;;
66450;Laerm;56829;52.274;4.770;2023-04-03T01:03:02;49.43;38.98;56.59;;
66450;Laerm;56829;52.274;4.770;2023-04-03T01:03:12;42.61;35.49;52.26;;
66450;Laerm;56829;52.274;4.770;2023-04-03T01:03:22;36.36;34.69;37.72;;
66450;Laerm;56829;52.274;4.770;2023-04-03T01:03:33;35.94;34.07;37.84;;